Cadiz, California
Current Conditions -  °F | °C
As of 1:56 PM on Friday 31 Oct 2014 (Local Time) from KNXP Reporting Station
Scattered Clouds Scattered Clouds  
Wind Chill: 82°   Ceiling: Unl
Heat Index: 82°   Visibility: 10mi
Dew Point: 35°   Wind: 10mph
Humidity: 18%   Direction: 130°SE
Pressure: 29.87"   Gusts: 17mph
Location:  34.6377°N, 115.833°W
Report Text: KNXP 312056Z 13009G15KT 10SM SCT120 SCT150 28/02 A2987 RMK AO2 SLP082 T02780017 58037 $
Loading
Personal Weather Stations






























Interactive Weather Map
Tropical Storm Tracking
New forecast layout! Learn more

10-Day Weather Forecast

Advertisements
Track Severe Weather on mobile